createdAt,value
2022-09-21T00:03:17.223Z,0
2022-09-21T00:09:17.275Z,0
2022-09-21T00:15:17.226Z,0
2022-09-21T00:21:17.215Z,0
2022-09-21T00:27:17.246Z,0
2022-09-21T00:33:17.211Z,0
2022-09-21T00:39:17.257Z,0
2022-09-21T00:45:17.250Z,0
2022-09-21T00:51:17.282Z,0
2022-09-21T00:57:17.261Z,0
2022-09-21T01:03:17.392Z,0
2022-09-21T01:09:17.243Z,0
2022-09-21T01:15:17.230Z,0
2022-09-21T01:21:17.273Z,0
2022-09-21T01:27:17.224Z,0
2022-09-21T01:33:17.226Z,0
2022-09-21T01:39:17.258Z,0
2022-09-21T01:45:17.244Z,0
2022-09-21T01:51:17.256Z,0
2022-09-21T01:57:17.253Z,0
2022-09-21T02:03:17.243Z,0
2022-09-21T02:09:17.241Z,0
2022-09-21T02:15:17.258Z,0
2022-09-21T02:21:17.251Z,0
2022-09-21T02:27:17.209Z,0
2022-09-21T02:33:17.245Z,0
2022-09-21T02:39:17.231Z,0
2022-09-21T02:45:17.202Z,0
2022-09-21T02:51:17.266Z,0
2022-09-21T02:57:17.243Z,0
2022-09-21T03:03:17.201Z,0
2022-09-21T03:09:17.313Z,0
2022-09-21T03:15:17.238Z,0
2022-09-21T03:21:17.250Z,0
2022-09-21T03:27:17.250Z,0
2022-09-21T03:33:17.255Z,0
2022-09-21T03:39:17.237Z,0
2022-09-21T03:45:17.251Z,0
2022-09-21T03:51:17.228Z,0
2022-09-21T03:57:17.245Z,0
2022-09-21T04:03:17.254Z,0
2022-09-21T04:09:17.222Z,0
2022-09-21T04:15:17.250Z,0
2022-09-21T04:21:17.243Z,0
2022-09-21T04:27:17.237Z,0
2022-09-21T04:33:17.206Z,0
2022-09-21T04:39:17.242Z,0
2022-09-21T04:45:17.228Z,0
2022-09-21T04:51:17.228Z,0
2022-09-21T04:57:17.345Z,0
2022-09-21T05:03:17.245Z,0
2022-09-21T05:09:17.225Z,0
2022-09-21T05:15:17.256Z,0
2022-09-21T05:21:17.224Z,0
2022-09-21T05:27:17.205Z,0
2022-09-21T05:33:17.239Z,0
2022-09-21T05:39:17.213Z,0
2022-09-21T05:45:17.203Z,0
2022-09-21T05:51:17.246Z,0
2022-09-21T05:57:17.220Z,0
2022-09-21T06:03:17.902Z,0
2022-09-21T06:09:17.234Z,0
2022-09-21T06:15:17.228Z,0
2022-09-21T06:21:17.224Z,0
2022-09-21T06:27:17.289Z,0
2022-09-21T06:33:17.236Z,0
2022-09-21T06:39:17.199Z,0
2022-09-21T06:45:17.269Z,0.4
2022-09-21T06:51:17.217Z,1.2
2022-09-21T06:57:17.205Z,1.6
2022-09-21T07:03:17.244Z,1.3
2022-09-21T07:15:17.214Z,2.7
2022-09-21T07:21:17.269Z,0.8
2022-09-21T07:27:17.222Z,0.6
2022-09-21T07:33:17.221Z,0
2022-09-21T07:39:17.264Z,0
2022-09-21T07:45:17.210Z,0
2022-09-21T07:51:17.221Z,1.1
2022-09-21T07:57:17.236Z,2.7
2022-09-21T08:03:17.209Z,3.3
2022-09-21T08:09:17.210Z,5.4
2022-09-21T08:15:44.128Z,6.7
2022-09-21T08:21:17.220Z,7.4
2022-09-21T08:27:17.218Z,8.9
2022-09-21T08:33:17.250Z,10.1
2022-09-21T08:39:17.227Z,12.5
2022-09-21T08:45:17.218Z,12.7
2022-09-21T08:51:17.235Z,13.3
2022-09-21T08:57:17.238Z,13.8
2022-09-21T09:03:17.270Z,14.3
2022-09-21T09:09:17.299Z,14.8
2022-09-21T09:15:17.239Z,15.1
2022-09-21T09:21:25.002Z,14.7
2022-09-21T09:27:17.283Z,13.7
2022-09-21T09:33:17.251Z,15.3
2022-09-21T09:39:17.258Z,14.3
2022-09-21T09:45:17.287Z,15.4
2022-09-21T09:51:17.243Z,14.7
2022-09-21T09:57:17.243Z,17.4
2022-09-21T10:03:17.301Z,15.8
2022-09-21T10:09:17.243Z,15.9
2022-09-21T10:15:17.270Z,18
2022-09-21T10:21:17.292Z,15.8
2022-09-21T10:27:17.271Z,16.7
2022-09-21T10:33:17.243Z,16
2022-09-21T10:39:17.294Z,16.7
2022-09-21T10:45:17.282Z,17.8
2022-09-21T10:51:17.276Z,16.8
2022-09-21T10:57:17.299Z,17.4
2022-09-21T11:03:17.245Z,17.9
2022-09-21T11:09:17.257Z,16.7
2022-09-21T11:15:17.305Z,12.5
2022-09-21T11:21:17.285Z,13.2
2022-09-21T11:27:17.286Z,12.4
2022-09-21T11:33:17.330Z,11.5
2022-09-21T11:39:17.271Z,13
2022-09-21T11:45:17.281Z,11.6
2022-09-21T11:51:17.485Z,12.1
2022-09-21T11:57:17.302Z,12.2
2022-09-21T12:03:17.261Z,12.4
2022-09-21T12:09:17.309Z,12
2022-09-21T12:15:17.360Z,11.5
2022-09-21T12:21:17.271Z,10.6
2022-09-21T12:27:17.473Z,11.3
2022-09-21T12:33:17.294Z,11.3
2022-09-21T12:39:17.282Z,11.1
2022-09-21T12:45:17.315Z,12.1
2022-09-21T12:51:17.285Z,13.3
2022-09-21T12:57:36.951Z,12.7
2022-09-21T13:03:17.314Z,12
2022-09-21T13:09:17.291Z,12.9
2022-09-21T13:15:17.313Z,12.7
2022-09-21T13:21:17.319Z,13.2
2022-09-21T13:27:17.302Z,13.4
2022-09-21T13:33:17.282Z,14.2
2022-09-21T13:39:17.354Z,14
2022-09-21T13:45:17.307Z,14.2
2022-09-21T13:51:17.322Z,14.9
2022-09-21T13:57:17.327Z,14.7
2022-09-21T14:03:17.311Z,14.4
2022-09-21T14:09:17.314Z,14
2022-09-21T14:15:17.350Z,14.7
2022-09-21T14:21:17.330Z,14.5
2022-09-21T14:27:17.331Z,14.5
2022-09-21T14:33:17.358Z,14.8
2022-09-21T14:39:17.300Z,15.6
2022-09-21T14:45:17.321Z,15.7
2022-09-21T14:51:17.340Z,15.9
2022-09-21T14:57:17.334Z,13.6
2022-09-21T15:03:17.346Z,12.1
2022-09-21T15:09:17.346Z,12.4
2022-09-21T15:15:17.338Z,12.9
2022-09-21T15:21:17.327Z,12.9
2022-09-21T15:27:17.362Z,12.6
2022-09-21T15:33:19.970Z,13
2022-09-21T15:39:17.339Z,13.1
2022-09-21T15:45:17.369Z,12.7
2022-09-21T15:51:17.329Z,11.3
2022-09-21T15:57:17.322Z,11.5
2022-09-21T16:03:17.333Z,11.3
2022-09-21T16:09:17.313Z,11.3
2022-09-21T16:15:17.313Z,11.2
2022-09-21T16:21:17.362Z,11
2022-09-21T16:27:17.338Z,10.9
2022-09-21T16:33:17.327Z,10.6
2022-09-21T16:39:17.425Z,11.1
2022-09-21T16:45:17.331Z,11.1
2022-09-21T16:51:17.327Z,11.2
2022-09-21T16:57:17.359Z,11.3
2022-09-21T17:03:17.352Z,11.1
2022-09-21T17:09:20.654Z,11
2022-09-21T17:15:17.365Z,10.9
2022-09-21T17:21:17.334Z,10.7
2022-09-21T17:27:17.348Z,10.1
2022-09-21T17:33:17.401Z,10.1
2022-09-21T17:39:17.342Z,9.9
2022-09-21T17:45:17.319Z,9.8
2022-09-21T17:51:17.356Z,10
2022-09-21T17:57:17.355Z,9.8
2022-09-21T18:03:17.397Z,9.6
2022-09-21T18:09:17.347Z,9.6
2022-09-21T18:15:17.347Z,9.8
2022-09-21T18:21:17.340Z,9.7
2022-09-21T18:27:17.373Z,9.4
2022-09-21T18:33:17.346Z,9.4
2022-09-21T18:39:17.320Z,9.4
2022-09-21T18:45:17.357Z,9.2
2022-09-21T18:51:17.361Z,9.1
2022-09-21T18:57:17.349Z,9.1
2022-09-21T19:03:18.844Z,9.2
2022-09-21T19:09:17.347Z,9.1
2022-09-21T19:15:17.343Z,9.1
2022-09-21T19:21:17.383Z,9
2022-09-21T19:27:17.349Z,8.7
2022-09-21T19:33:32.400Z,8.4
2022-09-21T19:39:17.379Z,7.9
2022-09-21T19:45:17.356Z,7.5
2022-09-21T19:51:17.372Z,7.4
2022-09-21T19:57:17.428Z,7
2022-09-21T20:03:17.341Z,6.6
2022-09-21T20:09:17.346Z,6.2
2022-09-21T20:15:17.399Z,5.8
2022-09-21T20:21:17.368Z,5.9
2022-09-21T20:27:17.354Z,5.8
2022-09-21T20:33:17.393Z,5.7
2022-09-21T20:39:17.365Z,5.4
2022-09-21T20:45:17.355Z,4.8
2022-09-21T20:51:17.400Z,4.7
2022-09-21T20:57:17.342Z,4.5
2022-09-21T21:03:17.360Z,4.2
2022-09-21T21:09:17.373Z,4.2
2022-09-21T21:15:17.358Z,4.3
2022-09-21T21:21:17.348Z,4.7
2022-09-21T21:27:17.382Z,4.6
2022-09-21T21:33:17.335Z,4.3
2022-09-21T21:39:17.331Z,4.1
2022-09-21T21:45:17.380Z,3.8
2022-09-21T21:51:17.362Z,3.5
2022-09-21T21:57:17.346Z,3.2
2022-09-21T22:03:17.394Z,3
2022-09-21T22:09:17.354Z,2.6
2022-09-21T22:15:17.368Z,2.2
2022-09-21T22:21:17.399Z,1.7
2022-09-21T22:27:17.369Z,1.6
2022-09-21T22:33:17.361Z,1.4
2022-09-21T22:39:17.414Z,1.3
2022-09-21T22:45:17.361Z,1.4
2022-09-21T22:51:17.375Z,1.5
2022-09-21T22:57:17.408Z,1.6
2022-09-21T23:03:17.347Z,1.5
2022-09-21T23:09:17.346Z,1.4
2022-09-21T23:15:17.369Z,1.3
2022-09-21T23:21:17.348Z,1.5
2022-09-21T23:27:17.359Z,1.6
2022-09-21T23:33:17.380Z,1.6
2022-09-21T23:39:17.346Z,1.7
2022-09-21T23:45:17.336Z,1.7
2022-09-21T23:51:17.385Z,1.6
2022-09-21T23:57:17.374Z,1.4
